Time;durP1;ratioP1;P1;durP2;ratioP2;P2;SDS_P1;SDS_P2;PMS_P1;PMS_P2;Temp;Humidity;BMP_temperature;BMP_pressure;BME280_temperature;BME280_humidity;BME280_pressure;Samples;Min_cycle;Max_cycle;Signal;HPM_P1;HPM_P2
2023/11/08 00:00:55;;;;;;;0.40;0.40;;;;;;;8.03;100.00;99090.19;5033003;28;20079;-78
2023/11/08 00:03:20;;;;;;;0.40;0.40;;;;;;;8.04;100.00;99070.41;5032535;28;20025;-78
2023/11/08 00:05:47;;;;;;;0.40;0.40;;;;;;;8.07;100.00;99065.50;5033305;28;20118;-79
2023/11/08 00:08:12;;;;;;;0.40;0.40;;;;;;;8.11;100.00;99071.28;5032331;28;20045;-78
2023/11/08 00:10:39;;;;;;;0.40;0.40;;;;;;;8.11;100.00;99052.53;5000200;28;20033;-78
2023/11/08 00:13:05;;;;;;;0.40;0.40;;;;;;;8.14;100.00;99038.75;5016334;28;20038;-80
2023/11/08 00:15:31;;;;;;;0.40;0.40;;;;;;;8.13;100.00;99029.88;5033372;28;20105;-78
2023/11/08 00:17:56;;;;;;;0.40;0.40;;;;;;;8.18;100.00;99023.94;5016581;28;20029;-80
2023/11/08 00:20:22;;;;;;;0.40;0.40;;;;;;;8.26;100.00;99023.75;5000283;28;20107;-80
2023/11/08 00:22:47;;;;;;;0.40;0.40;;;;;;;8.27;100.00;99012.00;5032370;28;20536;-80
2023/11/08 00:25:13;;;;;;;0.43;0.43;;;;;;;8.34;100.00;99006.66;5016183;28;20523;-80
2023/11/08 00:27:40;;;;;;;0.40;0.40;;;;;;;8.36;100.00;98994.72;5015957;28;20045;-79
2023/11/08 00:30:06;;;;;;;0.40;0.40;;;;;;;8.40;100.00;98980.94;5031901;28;20381;-79
2023/11/08 00:32:32;;;;;;;0.40;0.40;;;;;;;8.42;100.00;98970.84;5016057;28;20125;-79
2023/11/08 00:34:58;;;;;;;0.43;0.43;;;;;;;8.45;100.00;98965.91;5016097;28;20464;-79
2023/11/08 00:37:27;;;;;;;0.40;0.40;;;;;;;8.49;100.00;98947.56;5032975;28;20034;-79
2023/11/08 00:39:52;;;;;;;0.40;0.40;;;;;;;8.56;100.00;98945.72;5016268;28;20048;-79
2023/11/08 00:42:18;;;;;;;0.40;0.40;;;;;;;8.59;100.00;98947.97;5032424;28;20029;-79
2023/11/08 00:44:43;;;;;;;0.40;0.40;;;;;;;8.66;100.00;98922.00;4999706;28;20037;-79
2023/11/08 00:47:09;;;;;;;0.40;0.40;;;;;;;8.72;100.00;98912.31;4999790;28;20071;-80
2023/11/08 00:49:35;;;;;;;0.32;0.32;;;;;;;8.75;100.00;98901.97;5016085;28;20033;-79
2023/11/08 00:52:01;;;;;;;0.40;0.40;;;;;;;8.80;100.00;98904.84;4999460;28;20083;-79
2023/11/08 00:54:27;;;;;;;0.40;0.40;;;;;;;8.84;100.00;98896.38;5015922;28;20025;-79
2023/11/08 00:56:53;;;;;;;0.50;0.50;;;;;;;8.91;100.00;98886.47;5015992;28;20041;-79
2023/11/08 00:59:18;;;;;;;0.40;0.40;;;;;;;8.98;100.00;98889.97;4999661;28;20059;-80
2023/11/08 01:01:44;;;;;;;0.40;0.40;;;;;;;8.98;100.00;98866.66;5016009;28;20037;-80
2023/11/08 01:04:10;;;;;;;0.45;0.45;;;;;;;9.07;100.00;98855.69;5015708;28;20042;-79
2023/11/08 01:06:40;;;;;;;0.40;0.40;;;;;;;9.07;100.00;98848.47;5000225;28;20026;-79
2023/11/08 01:09:07;;;;;;;0.40;0.40;;;;;;;9.14;100.00;98853.81;5035802;28;20482;-79
2023/11/08 01:11:33;;;;;;;0.40;0.40;;;;;;;9.19;100.00;98848.66;5019854;28;20045;-80
2023/11/08 01:14:01;;;;;;;0.40;0.40;;;;;;;9.25;100.00;98837.06;5036353;28;20029;-79
2023/11/08 01:16:28;;;;;;;0.40;0.40;;;;;;;9.27;100.00;98826.13;5035763;28;20175;-80
2023/11/08 01:18:54;;;;;;;0.40;0.40;;;;;;;9.30;100.00;98829.19;5003046;28;20030;-80
2023/11/08 01:21:20;;;;;;;0.40;0.40;;;;;;;9.30;100.00;98823.81;5019193;28;20037;-78
2023/11/08 01:23:46;;;;;;;0.40;0.40;;;;;;;9.29;100.00;98810.63;5019308;28;20040;-79
2023/11/08 01:26:12;;;;;;;0.40;0.40;;;;;;;9.36;100.00;98806.03;5019332;28;20116;-80
2023/11/08 01:28:37;;;;;;;0.55;0.55;;;;;;;9.37;100.00;98808.53;5019426;28;20033;-80
2023/11/08 01:31:03;;;;;;;0.50;0.50;;;;;;;9.39;100.00;98811.81;5035781;28;20048;-80
2023/11/08 01:33:30;;;;;;;0.60;0.60;;;;;;;9.34;100.00;98805.44;5003091;28;20136;-80
2023/11/08 01:35:55;;;;;;;3.72;0.80;;;;;;;9.33;100.00;98806.47;5018872;28;20068;-80
2023/11/08 01:38:21;;;;;;;0.60;0.60;;;;;;;9.31;100.00;98808.56;5035527;28;20209;-80
2023/11/08 01:40:46;;;;;;;0.60;0.60;;;;;;;9.26;100.00;98817.22;5035558;28;20034;-80
2023/11/08 01:43:29;;;;;;;0.40;0.40;;;;;;;9.27;100.00;98818.09;5035602;28;20379;-80
2023/11/08 01:46:03;;;;;;;0.40;0.40;;;;;;;9.26;100.00;98838.69;5035108;28;20029;-80
2023/11/08 01:48:29;;;;;;;0.32;0.32;;;;;;;9.25;100.00;98804.88;5034663;28;20033;-80
2023/11/08 01:50:55;;;;;;;0.40;0.40;;;;;;;9.27;100.00;98831.50;5018584;28;20041;-80
2023/11/08 01:53:20;;;;;;;0.40;0.40;;;;;;;9.25;100.00;98829.00;5018808;28;20426;-80
2023/11/08 01:55:46;;;;;;;0.40;0.40;;;;;;;9.28;100.00;98839.31;5002617;28;20041;-80
2023/11/08 01:58:12;;;;;;;0.45;0.45;;;;;;;9.30;100.00;98842.59;5002305;28;20049;-80
2023/11/08 02:00:39;;;;;;;0.30;0.30;;;;;;;9.32;100.00;98839.72;5002337;28;20029;-80
2023/11/08 02:03:05;;;;;;;0.50;0.50;;;;;;;9.37;100.00;98842.56;5018422;28;20052;-80
2023/11/08 02:05:33;;;;;;;0.50;0.50;;;;;;;9.37;100.00;98835.34;5036195;28;20104;-80
2023/11/08 02:07:58;;;;;;;0.38;0.38;;;;;;;9.46;100.00;98827.84;5036653;28;20083;-80
2023/11/08 02:10:24;;;;;;;0.50;0.50;;;;;;;9.51;100.00;98849.50;5034671;28;20112;-80
2023/11/08 02:12:53;;;;;;;0.40;0.40;;;;;;;9.53;100.00;98850.13;5035815;28;20103;-81
2023/11/08 02:15:19;;;;;;;0.40;0.40;;;;;;;9.55;100.00;98847.19;5034947;28;20033;-80
2023/11/08 02:17:50;;;;;;;0.40;0.40;;;;;;;9.54;100.00;98850.94;5034344;28;20029;-80
2023/11/08 02:20:17;;;;;;;0.40;0.40;;;;;;;9.57;100.00;98861.22;5034524;28;20041;-80
2023/11/08 02:22:43;;;;;;;0.40;0.40;;;;;;;9.52;100.00;98863.72;5018514;28;20056;-80
2023/11/08 02:25:10;;;;;;;0.40;0.40;;;;;;;9.46;100.00;98878.84;5018134;28;20483;-80
2023/11/08 02:27:36;;;;;;;0.40;0.40;;;;;;;9.37;100.00;98885.50;5018136;28;20518;-80
2023/11/08 02:30:03;;;;;;;0.38;0.38;;;;;;;9.26;100.00;98886.97;5017826;28;20033;-79
2023/11/08 02:32:33;;;;;;;0.40;0.40;;;;;;;9.21;100.00;98894.84;5018357;28;20044;-79
2023/11/08 02:34:58;;;;;;;0.30;0.30;;;;;;;9.11;100.00;98897.16;5018162;28;20485;-79
2023/11/08 02:37:24;;;;;;;0.40;0.40;;;;;;;9.01;100.00;98905.63;5018076;28;20084;-80
2023/11/08 02:39:52;;;;;;;0.40;0.40;;;;;;;8.97;100.00;98913.28;5017841;28;20035;-79
2023/11/08 02:42:18;;;;;;;0.40;0.40;;;;;;;8.90;100.00;98922.38;5018620;28;20041;-79
2023/11/08 02:44:44;;;;;;;0.40;0.40;;;;;;;8.83;100.00;98908.16;5033199;28;20052;-79
2023/11/08 02:47:09;;;;;;;0.40;0.40;;;;;;;8.80;100.00;98920.94;5032968;28;20033;-79
2023/11/08 02:49:35;;;;;;;0.30;0.30;;;;;;;8.75;100.00;98922.59;5001004;28;20033;-79
2023/11/08 02:52:01;;;;;;;0.40;0.40;;;;;;;8.69;100.00;98908.19;5034217;28;20124;-79
2023/11/08 02:54:27;;;;;;;0.40;0.40;;;;;;;8.67;100.00;98920.13;5017907;28;20034;-79
2023/11/08 02:56:53;;;;;;;0.40;0.40;;;;;;;8.63;100.00;98922.41;5033772;28;20037;-79
2023/11/08 02:59:20;;;;;;;0.40;0.40;;;;;;;8.65;100.00;98931.06;5017223;28;20041;-79
2023/11/08 03:01:45;;;;;;;0.35;0.35;;;;;;;8.59;100.00;98935.38;5033888;28;20068;-79
2023/11/08 03:04:11;;;;;;;0.40;0.40;;;;;;;8.55;100.00;98944.06;5033537;28;20041;-79
2023/11/08 03:06:36;;;;;;;0.40;0.40;;;;;;;8.50;100.00;98947.34;5017004;28;20083;-79
2023/11/08 03:09:05;;;;;;;0.40;0.40;;;;;;;8.47;100.00;98945.09;5001119;28;20510;-79
2023/11/08 03:11:31;;;;;;;0.40;0.40;;;;;;;8.44;100.00;98944.66;5017616;28;20469;-79
2023/11/08 03:13:58;;;;;;;0.40;0.40;;;;;;;8.42;100.00;98954.78;5033519;28;20025;-79
2023/11/08 03:16:23;;;;;;;0.40;0.40;;;;;;;8.41;100.00;98942.41;5017341;28;20416;-79
2023/11/08 03:18:49;;;;;;;0.40;0.40;;;;;;;8.43;100.00;98951.06;5017462;28;20095;-79
2023/11/08 03:21:15;;;;;;;0.40;0.40;;;;;;;8.44;100.00;98947.34;5033237;28;20025;-79
2023/11/08 03:23:40;;;;;;;0.40;0.40;;;;;;;8.45;100.00;98955.19;5033466;28;20072;-79
2023/11/08 03:26:06;;;;;;;0.40;0.40;;;;;;;8.48;100.00;98965.50;5017112;28;20029;-79
2023/11/08 03:28:31;;;;;;;0.40;0.40;;;;;;;8.46;100.00;98972.06;5000747;28;20087;-79
2023/11/08 03:30:57;;;;;;;0.50;0.50;;;;;;;8.42;100.00;98950.25;5016096;28;20108;-79
2023/11/08 03:33:22;;;;;;;0.40;0.40;;;;;;;8.32;100.00;98966.69;5032953;28;20495;-79
2023/11/08 03:35:48;;;;;;;6.93;0.75;;;;;;;8.26;100.00;98967.50;5034370;28;20137;-79
2023/11/08 03:38:14;;;;;;;3.05;1.23;;;;;;;8.09;100.00;98955.53;5016974;28;20032;-79
2023/11/08 03:40:40;;;;;;;4.50;1.55;;;;;;;8.06;100.00;98978.19;5033723;28;20025;-79
2023/11/08 03:43:06;;;;;;;2.00;0.52;;;;;;;7.94;100.00;98977.16;5032761;28;20476;-79
2023/11/08 03:45:32;;;;;;;2.65;0.60;;;;;;;7.91;100.00;98981.06;5000532;28;20022;-79
2023/11/08 03:47:57;;;;;;;6.13;1.17;;;;;;;7.87;100.00;98990.50;5000154;28;20487;-79
2023/11/08 03:50:23;;;;;;;3.30;1.02;;;;;;;7.84;100.00;99003.47;5033221;28;20460;-79
2023/11/08 03:52:49;;;;;;;0.55;0.30;;;;;;;7.89;100.00;99015.22;5016524;28;20435;-79
2023/11/08 03:55:14;;;;;;;5.97;1.33;;;;;;;7.88;100.00;99029.59;5032703;28;20025;-80
2023/11/08 03:57:41;;;;;;;0.30;0.30;;;;;;;7.75;100.00;99013.50;5032893;28;20038;-80
2023/11/08 04:00:08;;;;;;;0.40;0.40;;;;;;;7.59;100.00;99019.19;5016618;28;20060;-79
2023/11/08 04:02:35;;;;;;;0.30;0.30;;;;;;;7.48;100.00;99018.72;5032724;28;20030;-80
2023/11/08 04:05:00;;;;;;;0.40;0.40;;;;;;;7.43;100.00;99015.81;5032011;28;20025;-79
2023/11/08 04:07:27;;;;;;;0.30;0.30;;;;;;;7.41;100.00;99025.91;5000021;28;20026;-80
2023/11/08 04:09:52;;;;;;;0.30;0.30;;;;;;;7.34;100.00;99033.06;5033589;28;20033;-80
2023/11/08 04:12:18;;;;;;;0.40;0.40;;;;;;;7.24;100.00;99060.16;5016080;28;20087;-79
2023/11/08 04:14:43;;;;;;;0.30;0.30;;;;;;;7.15;100.00;99050.66;5015861;28;20033;-79
2023/11/08 04:17:09;;;;;;;0.30;0.30;;;;;;;6.96;100.00;99037.94;5016242;28;20124;-79
2023/11/08 04:19:36;;;;;;;0.40;0.40;;;;;;;6.81;100.00;99052.25;5000923;28;20041;-79
2023/11/08 04:22:02;;;;;;;0.30;0.30;;;;;;;6.73;100.00;99057.72;5032220;28;20050;-79
2023/11/08 04:24:28;;;;;;;0.30;0.30;;;;;;;6.62;100.00;99052.91;5032261;28;20038;-79
2023/11/08 04:26:53;;;;;;;0.40;0.40;;;;;;;6.54;100.00;99064.53;5015913;28;20036;-79
2023/11/08 04:29:20;;;;;;;0.40;0.40;;;;;;;6.51;100.00;99061.41;5015814;28;20034;-79
2023/11/08 04:31:45;;;;;;;0.40;0.40;;;;;;;6.52;100.00;99066.56;5032524;28;20033;-79
2023/11/08 04:34:12;;;;;;;0.40;0.40;;;;;;;6.49;100.00;99064.28;5016314;28;20033;-79
2023/11/08 04:36:39;;;;;;;0.40;0.40;;;;;;;6.39;100.00;99064.59;5033385;28;20133;-79
2023/11/08 04:39:05;;;;;;;0.40;0.40;;;;;;;6.37;100.00;99066.63;5032262;28;20037;-79
2023/11/08 04:41:31;;;;;;;0.30;0.30;;;;;;;6.34;100.00;99074.19;5032700;28;20028;-79
2023/11/08 04:43:57;;;;;;;0.35;0.35;;;;;;;6.36;100.00;99077.50;5020106;28;20434;-79
2023/11/08 04:46:22;;;;;;;0.40;0.40;;;;;;;6.42;100.00;99079.41;5019902;28;20065;-80
2023/11/08 04:48:49;;;;;;;0.30;0.30;;;;;;;6.54;100.00;99101.09;5003301;28;20041;-79
2023/11/08 04:51:15;;;;;;;0.77;0.55;;;;;;;6.64;100.00;99098.09;5019715;28;20036;-78
2023/11/08 04:53:41;;;;;;;6.90;1.15;;;;;;;6.85;100.00;99113.28;5019629;28;20025;-78
2023/11/08 04:56:06;;;;;;;1.77;1.05;;;;;;;6.87;100.00;99119.28;5003484;28;20035;-79
2023/11/08 04:58:32;;;;;;;1.23;0.65;;;;;;;6.85;100.00;99134.66;5019962;28;20033;-79
2023/11/08 05:00:58;;;;;;;3.47;0.95;;;;;;;6.73;100.00;99137.03;5003686;28;20132;-79
2023/11/08 05:03:23;;;;;;;1.42;1.05;;;;;;;6.62;100.00;99129.53;5003595;28;20029;-79
2023/11/08 05:05:49;;;;;;;2.40;1.00;;;;;;;6.45;100.00;99128.94;5019737;28;20087;-79
2023/11/08 05:08:14;;;;;;;6.30;1.35;;;;;;;6.27;100.00;99124.00;5003431;28;20029;-79
2023/11/08 05:10:40;;;;;;;4.68;1.55;;;;;;;6.20;100.00;99131.94;5019680;28;20053;-79
2023/11/08 05:13:06;;;;;;;6.53;1.05;;;;;;;6.16;100.00;99131.47;5019612;28;20391;-79
2023/11/08 05:15:31;;;;;;;0.82;0.82;;;;;;;6.16;100.00;99131.47;5003454;28;20472;-79
2023/11/08 05:17:57;;;;;;;1.25;1.08;;;;;;;6.10;100.00;99134.09;5003181;28;20525;-79
2023/11/08 05:20:25;;;;;;;1.50;1.00;;;;;;;5.95;100.00;99139.44;5035306;28;20029;-79
2023/11/08 05:22:51;;;;;;;1.20;0.80;;;;;;;5.82;100.00;99149.88;5019583;28;20026;-79
2023/11/08 05:25:17;;;;;;;6.03;1.23;;;;;;;5.77;100.00;99152.28;5037133;28;20395;-79
2023/11/08 05:27:45;;;;;;;2.15;0.75;;;;;;;5.67;100.00;99153.41;5002747;28;20030;-79
2023/11/08 05:30:11;;;;;;;2.47;1.02;;;;;;;5.61;100.00;99159.47;5019659;28;20072;-79
2023/11/08 05:32:37;;;;;;;1.95;0.90;;;;;;;5.59;100.00;99164.16;5003184;28;20037;-79
2023/11/08 05:35:03;;;;;;;14.55;1.65;;;;;;;5.64;100.00;99177.78;5018944;28;20503;-79
2023/11/08 05:37:30;;;;;;;2.40;0.90;;;;;;;5.55;100.00;99176.19;5035711;28;20460;-79
2023/11/08 05:39:56;;;;;;;6.10;1.38;;;;;;;5.47;100.00;99184.25;5002732;28;20036;-79
2023/11/08 05:42:22;;;;;;;13.07;2.38;;;;;;;5.40;100.00;99192.16;5018852;28;20042;-79
2023/11/08 05:44:58;;;;;;;7.13;2.40;;;;;;;5.37;100.00;99205.00;5018985;28;20033;-79
2023/11/08 05:47:24;;;;;;;1.95;0.93;;;;;;;5.36;100.00;99214.84;5020247;28;20116;-79
2023/11/08 05:49:50;;;;;;;4.25;1.30;;;;;;;5.29;100.00;99209.44;5003331;28;20176;-79
2023/11/08 05:52:19;;;;;;;2.95;1.05;;;;;;;5.19;100.00;99218.69;5018540;28;20468;-79
2023/11/08 05:54:44;;;;;;;7.35;1.10;;;;;;;5.17;100.00;99226.00;5001613;28;20108;-79
2023/11/08 05:57:10;;;;;;;9.30;2.03;;;;;;;5.12;100.00;99225.72;5018565;28;20196;-79
2023/11/08 05:59:36;;;;;;;9.13;1.73;;;;;;;5.01;100.00;99227.78;5018220;28;20068;-79
2023/11/08 06:02:02;;;;;;;6.30;1.63;;;;;;;4.97;100.00;99226.47;5018719;28;20037;-79
2023/11/08 06:04:27;;;;;;;13.68;2.72;;;;;;;4.94;100.00;99221.50;5034405;28;20067;-79
2023/11/08 06:06:53;;;;;;;9.15;1.90;;;;;;;4.89;100.00;99220.38;5018414;28;20128;-79
2023/11/08 06:09:19;;;;;;;0.50;0.50;;;;;;;4.95;100.00;99235.63;5018090;28;20032;-79
2023/11/08 06:11:44;;;;;;;8.75;1.55;;;;;;;4.99;100.00;99229.78;5002123;28;20391;-78
2023/11/08 06:14:10;;;;;;;9.90;1.63;;;;;;;4.91;100.00;99239.69;5018417;28;20034;-79
2023/11/08 06:16:40;;;;;;;13.48;2.08;;;;;;;4.94;100.00;99244.66;5019343;28;20060;-80
2023/11/08 06:19:06;;;;;;;6.57;1.90;;;;;;;4.90;100.00;99240.69;5018876;28;20033;-79
2023/11/08 06:21:32;;;;;;;6.65;1.08;;;;;;;4.87;100.00;99246.34;5001882;28;20040;-79
2023/11/08 06:23:59;;;;;;;8.68;1.58;;;;;;;4.90;100.00;99252.19;5017998;28;20026;-79
2023/11/08 06:26:28;;;;;;;1.83;1.10;;;;;;;5.03;100.00;99272.91;5034286;28;20026;-79
2023/11/08 06:28:53;;;;;;;12.18;2.13;;;;;;;5.20;100.00;99261.13;5018122;28;20045;-79
2023/11/08 06:31:22;;;;;;;6.80;1.55;;;;;;;5.44;100.00;99275.25;5034519;28;20026;-79
2023/11/08 06:33:48;;;;;;;9.82;1.63;;;;;;;5.60;100.00;99275.13;5002260;28;20042;-79
2023/11/08 06:36:17;;;;;;;9.52;1.48;;;;;;;5.63;100.00;99277.41;5018244;28;20041;-79
2023/11/08 06:38:45;;;;;;;10.30;1.60;;;;;;;5.46;100.00;99278.59;5017696;28;20048;-79
2023/11/08 06:41:11;;;;;;;5.57;1.45;;;;;;;5.27;100.00;99271.91;5034327;28;20087;-79
2023/11/08 06:43:36;;;;;;;7.40;1.23;;;;;;;5.19;100.00;99278.13;5017498;28;20029;-79
2023/11/08 06:46:02;;;;;;;9.57;2.45;;;;;;;5.07;100.00;99276.88;5017611;28;20395;-79
2023/11/08 06:48:28;;;;;;;3.63;1.05;;;;;;;5.01;100.00;99282.91;5034112;28;20033;-79
2023/11/08 06:50:53;;;;;;;1.98;1.10;;;;;;;5.02;100.00;99287.22;5033546;28;20029;-78
2023/11/08 06:53:19;;;;;;;8.00;1.70;;;;;;;5.02;100.00;99271.22;5017300;28;20033;-78
2023/11/08 06:55:46;;;;;;;1.67;0.80;;;;;;;5.04;100.00;99285.22;5034003;28;20052;-79
2023/11/08 06:58:12;;;;;;;3.58;0.90;;;;;;;5.07;100.00;99290.19;5033997;28;20049;-79
2023/11/08 07:00:38;;;;;;;7.88;1.45;;;;;;;5.13;100.00;99293.97;5018320;28;20037;-78
2023/11/08 07:03:04;;;;;;;9.00;1.15;;;;;;;5.12;100.00;99293.16;5017395;28;20025;-78
2023/11/08 07:05:31;;;;;;;7.13;1.10;;;;;;;5.10;100.00;99300.47;5016856;28;20078;-78
2023/11/08 07:07:57;;;;;;;11.25;1.63;;;;;;;5.18;100.00;99304.94;5033858;28;20021;-78
2023/11/08 07:10:23;;;;;;;14.32;1.90;;;;;;;5.29;100.00;99312.50;5017400;28;20043;-79
2023/11/08 07:12:48;;;;;;;7.50;1.73;;;;;;;5.33;100.00;99310.34;5033890;28;20029;-79
2023/11/08 07:15:14;;;;;;;8.65;1.45;;;;;;;5.31;100.00;99305.16;5016630;28;20530;-78
2023/11/08 07:17:40;;;;;;;3.58;1.27;;;;;;;5.37;100.00;99312.47;5034882;28;20025;-79
2023/11/08 07:20:07;;;;;;;8.90;1.50;;;;;;;5.51;100.00;99319.69;5033215;28;20025;-78
2023/11/08 07:22:33;;;;;;;3.63;1.38;;;;;;;5.57;100.00;99336.81;5033674;28;20524;-78
2023/11/08 07:24:59;;;;;;;10.52;1.60;;;;;;;5.50;100.00;99330.53;5000062;28;20400;-78
2023/11/08 07:27:25;;;;;;;14.02;1.77;;;;;;;5.25;100.00;99336.03;5015878;28;20033;-78
2023/11/08 07:29:51;;;;;;;8.45;1.70;;;;;;;5.06;100.00;99331.16;5032679;28;20108;-78
2023/11/08 07:32:17;;;;;;;10.02;2.97;;;;;;;5.02;100.00;99343.16;5016671;28;20495;-78
2023/11/08 07:34:43;;;;;;;14.15;5.40;;;;;;;5.08;100.00;99337.16;5000534;28;20026;-78
2023/11/08 07:37:09;;;;;;;13.85;5.28;;;;;;;5.16;100.00;99344.25;5016827;28;20038;-78
2023/11/08 07:39:35;;;;;;;11.02;4.45;;;;;;;5.13;100.00;99349.91;5033221;28;20048;-78
2023/11/08 07:42:05;;;;;;;13.18;7.55;;;;;;;5.00;100.00;99356.66;5016556;28;20440;-78
2023/11/08 07:44:30;;;;;;;18.75;7.90;;;;;;;4.85;100.00;99356.56;5017492;28;20468;-79
2023/11/08 07:46:57;;;;;;;26.88;8.88;;;;;;;4.69;100.00;99353.97;5016740;28;20067;-78
2023/11/08 07:49:23;;;;;;;18.45;9.35;;;;;;;4.53;100.00;99365.50;4984409;28;20037;-78
2023/11/08 07:51:48;;;;;;;15.77;6.22;;;;;;;4.41;100.00;99370.34;5016554;28;20034;-79
2023/11/08 07:54:14;;;;;;;15.50;5.55;;;;;;;4.33;100.00;99372.19;5032573;28;20530;-78
2023/11/08 07:56:40;;;;;;;12.52;3.90;;;;;;;4.26;100.00;99377.38;5016421;28;20040;-78
2023/11/08 07:59:05;;;;;;;7.20;2.90;;;;;;;4.17;100.00;99373.06;4999910;28;20041;-78
2023/11/08 08:01:34;;;;;;;19.77;4.30;;;;;;;4.19;100.00;99379.06;5032738;28;20461;-78
2023/11/08 08:04:00;;;;;;;17.70;4.18;;;;;;;4.24;100.00;99386.53;5033125;28;20059;-79
2023/11/08 08:06:25;;;;;;;14.93;5.07;;;;;;;4.27;100.00;99386.19;5032799;28;20034;-79
2023/11/08 08:08:51;;;;;;;15.80;4.72;;;;;;;4.36;100.00;99393.16;5015771;28;20388;-79
2023/11/08 08:11:17;;;;;;;12.57;4.00;;;;;;;4.35;100.00;99400.31;5031408;28;20490;-79
2023/11/08 08:13:45;;;;;;;20.42;5.80;;;;;;;4.30;100.00;99393.81;5015976;28;20058;-78
2023/11/08 08:16:11;;;;;;;12.35;5.40;;;;;;;4.24;100.00;99395.34;5000225;28;20095;-79
2023/11/08 08:18:37;;;;;;;11.50;5.65;;;;;;;4.19;100.00;99400.34;5016153;28;20026;-79
2023/11/08 08:21:04;;;;;;;14.40;7.80;;;;;;;4.05;100.00;99396.53;5032274;28;20536;-78
2023/11/08 08:23:29;;;;;;;15.25;6.45;;;;;;;3.82;100.00;99404.31;5016100;28;20044;-79
2023/11/08 08:25:55;;;;;;;15.07;6.28;;;;;;;3.62;100.00;99413.59;5032438;28;20037;-79
2023/11/08 08:28:24;;;;;;;16.02;5.13;;;;;;;3.48;100.00;99415.91;5015945;28;20034;-79
2023/11/08 08:30:49;;;;;;;8.77;3.10;;;;;;;3.47;100.00;99434.69;5032386;28;20037;-79
2023/11/08 08:33:15;;;;;;;12.57;3.53;;;;;;;3.48;100.00;99428.38;5016026;28;20030;-79
2023/11/08 08:35:40;;;;;;;7.10;3.35;;;;;;;3.43;100.00;99436.81;5032390;28;20033;-79
2023/11/08 08:38:06;;;;;;;8.98;2.47;;;;;;;3.31;100.00;99427.50;5037941;28;20386;-79
2023/11/08 08:40:32;;;;;;;12.48;2.30;;;;;;;3.17;100.00;99433.44;5034154;28;20103;-79
2023/11/08 08:42:57;;;;;;;8.35;1.75;;;;;;;2.93;100.00;99424.38;5031971;28;20025;-79
2023/11/08 08:45:23;;;;;;;4.85;1.63;;;;;;;2.89;100.00;99433.66;5016077;28;20079;-80
2023/11/08 08:47:52;;;;;;;7.70;1.95;;;;;;;2.92;100.00;99441.28;5032384;28;20128;-80
2023/11/08 08:50:18;;;;;;;14.82;2.25;;;;;;;3.17;100.00;99436.91;5033395;28;20476;-80
2023/11/08 08:52:45;;;;;;;7.00;1.95;;;;;;;3.49;100.00;99443.31;5033183;28;20045;-80
2023/11/08 08:55:11;;;;;;;15.77;2.20;;;;;;;3.84;100.00;99452.03;4999554;28;20029;-79
2023/11/08 08:57:37;;;;;;;11.75;3.10;;;;;;;4.12;100.00;99447.22;5015429;28;20175;-79
2023/11/08 09:00:04;;;;;;;10.70;1.70;;;;;;;4.31;100.00;99452.22;4981830;28;20135;-78
2023/11/08 09:02:30;;;;;;;11.60;2.13;;;;;;;4.45;100.00;99457.84;5014203;28;20026;-78
2023/11/08 09:04:55;;;;;;;16.55;3.00;;;;;;;4.45;100.00;99465.84;4999185;28;20037;-79
2023/11/08 09:07:21;;;;;;;15.52;2.50;;;;;;;4.58;100.00;99464.31;5015574;28;20380;-79
2023/11/08 09:09:46;;;;;;;10.63;2.47;;;;;;;4.80;100.00;99465.44;5031704;28;20083;-80
2023/11/08 09:12:12;;;;;;;11.50;2.08;;;;;;;5.11;100.00;99470.00;5015749;28;20060;-80
2023/11/08 09:14:37;;;;;;;11.75;2.60;;;;;;;5.57;100.00;99475.47;5033389;28;20217;-79
2023/11/08 09:17:06;;;;;;;7.63;2.40;;;;;;;5.62;100.00;99475.75;5015794;28;20121;-79
2023/11/08 09:19:34;;;;;;;4.88;1.73;;;;;;;5.27;100.00;99479.78;5031111;28;20091;-79
2023/11/08 09:22:02;;;;;;;14.63;2.42;;;;;;;5.28;100.00;99479.59;5014766;28;20064;-83
2023/11/08 09:24:27;;;;;;;7.68;2.33;;;;;;;5.81;100.00;99484.31;5015551;28;20065;-83
2023/11/08 09:26:56;;;;;;;16.42;2.67;;;;;;;6.33;100.00;99484.47;5032090;28;20120;-83
2023/11/08 09:29:24;;;;;;;11.93;2.35;;;;;;;7.26;100.00;99490.41;5003029;28;20105;-84
2023/11/08 09:31:50;;;;;;;10.57;2.35;;;;;;;7.49;100.00;99492.97;5037011;28;20094;-83
2023/11/08 09:34:15;;;;;;;17.70;2.83;;;;;;;7.71;100.00;99489.31;5035902;28;20475;-84
2023/11/08 09:36:44;;;;;;;8.35;1.90;;;;;;;8.44;100.00;99491.94;5019311;28;20528;-83
2023/11/08 09:39:11;;;;;;;12.23;2.05;;;;;;;9.31;100.00;99495.19;5035718;28;20022;-84
2023/11/08 09:41:37;;;;;;;15.82;2.67;;;;;;;9.86;100.00;99498.72;5035666;28;20120;-83
2023/11/08 09:44:04;;;;;;;10.60;3.85;;;;;;;9.24;100.00;99506.72;5035337;28;20030;-83
2023/11/08 09:46:31;;;;;;;11.20;1.85;;;;;;;8.68;100.00;99498.72;5035693;28;20026;-83
2023/11/08 09:48:57;;;;;;;8.52;2.13;;;;;;;9.43;100.00;99513.22;5035641;28;20052;-83
2023/11/08 09:51:22;;;;;;;15.30;2.40;;;;;;;9.82;100.00;99505.53;5036864;28;20453;-84
2023/11/08 09:53:49;;;;;;;9.75;2.47;;;;;;;10.02;100.00;99519.00;5035388;28;20060;-84
2023/11/08 09:56:15;;;;;;;10.25;2.17;;;;;;;10.09;100.00;99523.38;5035905;28;20029;-84
2023/11/08 09:58:44;;;;;;;13.77;2.60;;;;;;;10.27;100.00;99522.81;5036472;28;20056;-84
2023/11/08 10:01:17;;;;;;;9.70;1.55;;;;;;;10.46;100.00;99515.81;5035544;28;20029;-84
2023/11/08 10:03:43;;;;;;;9.10;2.17;;;;;;;10.59;100.00;99506.94;5002585;28;20026;-83
2023/11/08 10:06:09;;;;;;;8.77;1.95;;;;;;;9.87;100.00;99511.09;5035989;28;20030;-83
2023/11/08 10:08:35;;;;;;;13.52;2.63;;;;;;;8.79;100.00;99519.63;5018682;28;20468;-83
2023/11/08 10:11:01;;;;;;;11.55;2.60;;;;;;;9.51;100.00;99514.09;5017036;28;20029;-83
2023/11/08 10:13:48;;;;;;;14.00;2.55;;;;;;;10.24;100.00;99516.97;5032712;28;20112;-82
2023/11/08 10:16:18;;;;;;;13.73;2.95;;;;;;;9.72;100.00;99505.09;5017051;28;20044;-83
2023/11/08 10:19:00;;;;;;;9.25;3.25;;;;;;;9.65;100.00;99505.88;5017418;28;20030;-83
2023/11/08 10:21:27;;;;;;;19.75;5.00;;;;;;;10.57;100.00;99511.69;5018251;28;20088;-83
2023/11/08 10:23:55;;;;;;;13.27;3.30;;;;;;;10.70;100.00;99517.06;5017488;28;20037;-83
2023/11/08 10:26:31;;;;;;;16.55;4.05;;;;;;;11.07;100.00;99511.25;5034066;28;20438;-84
2023/11/08 10:29:07;;;;;;;18.00;4.28;;;;;;;11.99;100.00;99509.31;5002639;28;20433;-84
2023/11/08 10:31:35;;;;;;;7.95;3.00;;;;;;;12.57;100.00;99517.22;5018208;28;20025;-80
2023/11/08 10:34:06;;;;;;;14.77;3.42;;;;;;;12.82;100.00;99513.69;5016853;28;20025;-80
2023/11/08 10:36:33;;;;;;;10.02;3.00;;;;;;;12.28;100.00;99510.59;5015651;28;20553;-80
2023/11/08 10:38:59;;;;;;;6.55;2.30;;;;;;;12.28;100.00;99518.66;4998349;28;20030;-80
2023/11/08 10:41:25;;;;;;;7.63;2.13;;;;;;;12.28;100.00;99511.41;4997252;28;20030;-80
2023/11/08 10:44:14;;;;;;;8.68;1.85;;;;;;;12.17;100.00;99516.66;5031035;28;20033;-80
2023/11/08 10:46:48;;;;;;;9.48;2.42;;;;;;;11.75;100.00;99513.50;5015128;28;20033;-80
2023/11/08 10:49:13;;;;;;;7.25;2.38;;;;;;;11.63;100.00;99511.50;5016281;28;20045;-79
2023/11/08 10:51:41;;;;;;;20.88;2.60;;;;;;;11.30;100.00;99513.47;5015841;28;20087;-79
2023/11/08 10:54:07;;;;;;;12.32;2.33;;;;;;;11.08;100.00;99513.72;5032274;28;20029;-79
2023/11/08 10:56:34;;;;;;;14.38;2.53;;;;;;;10.94;100.00;99502.16;5034248;28;20037;-79
2023/11/08 10:59:03;;;;;;;7.45;1.90;;;;;;;10.33;100.00;99495.13;5030601;28;20029;-79
2023/11/08 11:01:30;;;;;;;12.68;2.83;;;;;;;10.74;100.00;99494.13;5031098;28;20376;-79
2023/11/08 11:04:04;;;;;;;15.40;3.33;;;;;;;11.76;100.00;99494.47;5000866;28;20037;-79
2023/11/08 11:06:37;;;;;;;12.20;3.40;;;;;;;11.49;100.00;99491.06;5001711;28;20029;-79
2023/11/08 11:09:10;;;;;;;7.72;2.08;;;;;;;11.07;100.00;99490.56;5016852;28;20048;-79
2023/11/08 11:11:59;;;;;;;13.50;3.63;;;;;;;11.22;100.00;99488.44;5001097;28;20034;-79
2023/11/08 11:14:33;;;;;;;7.80;2.25;;;;;;;11.35;100.00;99487.59;5016770;28;20057;-79
2023/11/08 11:17:22;;;;;;;10.02;2.13;;;;;;;11.00;100.00;99490.56;5016939;28;20029;-79
2023/11/08 11:19:50;;;;;;;8.85;2.38;;;;;;;10.50;100.00;99489.34;5017061;28;20041;-79
2023/11/08 11:22:18;;;;;;;8.77;2.63;;;;;;;10.12;100.00;99493.41;5000703;28;20025;-79
2023/11/08 11:24:45;;;;;;;11.23;1.75;;;;;;;10.21;100.00;99501.28;4984570;28;20091;-79
2023/11/08 11:27:33;;;;;;;8.00;1.95;;;;;;;10.05;100.00;99487.19;5000268;28;20025;-79